X  Zatvori METAR podaci zračne luke     LDPL Pula Airport
Temperatura
13°C Temperatura
7°C Točka rosišta
67% Vlaga



Vjetar
16 KM/S
10 MPS
4 M/S
9 Čvorovi



220°
JZ
Trenutna situacija

Uglavnom oblačno Uglavnom oblačno
Tlak zraka 1006.92 (hPa) - 29.73 (inHg)
Vidljivost 6.2 (milje) - 10 (km)
Zračna luka
Kôd zračne luke LDPL

Lokacija: Pula Airport
Udaljenost: 39 (km)

Metar:
LDPL 011800Z 22009KT 9999 SCT035 BKN045 13/07 Q1007 NOSIG

Vrijeme: 01-12-2021 19:00 CET